ES-0068 weather

Aeròdrom de Can Moragues
Sabadell, Barcelona, Spain

Public forecast

Using degrees Celsius for public forecast. Weather courtesy of forecast.io.

METAR (pilot weather report)

Closest report is Sabadell Airport, 3.6 nm (6.7 km) S. Retrieved 2019/09/18 02:30 UTC (5 minutes ago):

LELL 180230Z AUTO VRB02KT 9999 NCD 19/16 Q1014

TAF (pilot weather forecast)

Closest forecast is Sabadell Airport, 3.6 nm (6.7 km) S. Retrieved 2019/09/18 03:27 UTC (0 seconds ago):

TAF LELL 180200Z 1803/1903 VRB03KT 9999 FEW025 TX29/1812Z TN18/1806Z BECMG 1810/1812 13009KT PROB40 TEMPO 1812/1820 4000 SHRA FEW025CB PROB30 TEMPO 1812/1820 35012KT 3000 TSRA SCT025CB BECMG 1818/1820 VRB03KT